Port Harcourt, Nigeria
Current Conditions -  °F | °C
As of 4:00 PM on Thursday 30 Oct 2014 (Local Time) from FKKD Reporting Station
Broken Clouds Broken Clouds  
Wind Chill: 82°   Ceiling: 1300
Heat Index: 89°   Visibility: 6mi
Dew Point: 75°   Wind: 7mph
Humidity: 79%   Direction: 260°W
Pressure: 29.77"   Gusts: NA
Location:  4.78°N, 7°E
Report Text: FKKD 301500Z 26006KT 9999 BKN013 FEW016CB 28/24 Q1008 NOSIG
Loading
Personal Weather Stations






























Interactive Weather Map
Tropical Storm Tracking
New forecast layout! Learn more

10-Day Weather Forecast

Advertisements
Track Severe Weather on mobile